sensor_id;sensor_type;location;lat;lon;timestamp;P1;durP1;ratioP1;P2;durP2;ratioP2
23838;SDS011;12100;44.384;20.272;2022-08-21T00:01:14;44.70;;;38.60;;
23838;SDS011;12100;44.384;20.272;2022-08-21T00:03:43;48.55;;;40.47;;
23838;SDS011;12100;44.384;20.272;2022-08-21T00:06:09;46.38;;;39.55;;
23838;SDS011;12100;44.384;20.272;2022-08-21T00:08:35;48.13;;;38.22;;
23838;SDS011;12100;44.384;20.272;2022-08-21T00:11:01;45.95;;;39.63;;
23838;SDS011;12100;44.384;20.272;2022-08-21T00:13:28;45.50;;;38.47;;
23838;SDS011;12100;44.384;20.272;2022-08-21T00:15:54;48.95;;;39.75;;
23838;SDS011;12100;44.384;20.272;2022-08-21T00:18:20;46.10;;;38.22;;
23838;SDS011;12100;44.384;20.272;2022-08-21T00:20:46;47.55;;;37.45;;
23838;SDS011;12100;44.384;20.272;2022-08-21T00:23:13;47.03;;;38.17;;
23838;SDS011;12100;44.384;20.272;2022-08-21T00:25:40;45.80;;;38.65;;
23838;SDS011;12100;44.384;20.272;2022-08-21T00:28:08;48.33;;;38.78;;
23838;SDS011;12100;44.384;20.272;2022-08-21T00:30:34;48.83;;;39.20;;
23838;SDS011;12100;44.384;20.272;2022-08-21T00:33:00;50.20;;;40.83;;
23838;SDS011;12100;44.384;20.272;2022-08-21T00:35:34;49.15;;;40.42;;
23838;SDS011;12100;44.384;20.272;2022-08-21T00:38:02;51.58;;;39.55;;
23838;SDS011;12100;44.384;20.272;2022-08-21T00:40:33;49.40;;;40.83;;
23838;SDS011;12100;44.384;20.272;2022-08-21T00:43:08;47.72;;;39.28;;
23838;SDS011;12100;44.384;20.272;2022-08-21T00:45:35;46.85;;;38.05;;
23838;SDS011;12100;44.384;20.272;2022-08-21T00:48:01;54.88;;;39.22;;
23838;SDS011;12100;44.384;20.272;2022-08-21T00:50:28;49.95;;;39.05;;
23838;SDS011;12100;44.384;20.272;2022-08-21T00:52:57;47.67;;;37.90;;
23838;SDS011;12100;44.384;20.272;2022-08-21T00:55:25;49.00;;;39.83;;
23838;SDS011;12100;44.384;20.272;2022-08-21T00:57:52;55.63;;;40.35;;
23838;SDS011;12100;44.384;20.272;2022-08-21T01:00:32;54.83;;;40.58;;
23838;SDS011;12100;44.384;20.272;2022-08-21T01:03:00;50.25;;;38.75;;
23838;SDS011;12100;44.384;20.272;2022-08-21T01:05:27;52.00;;;39.92;;
23838;SDS011;12100;44.384;20.272;2022-08-21T01:07:54;52.97;;;38.67;;
23838;SDS011;12100;44.384;20.272;2022-08-21T01:10:22;60.05;;;41.63;;
23838;SDS011;12100;44.384;20.272;2022-08-21T01:12:48;60.50;;;40.33;;
23838;SDS011;12100;44.384;20.272;2022-08-21T01:15:20;61.85;;;42.50;;
23838;SDS011;12100;44.384;20.272;2022-08-21T01:17:48;59.50;;;41.53;;
23838;SDS011;12100;44.384;20.272;2022-08-21T01:20:14;57.50;;;38.92;;
23838;SDS011;12100;44.384;20.272;2022-08-21T01:22:41;52.70;;;37.13;;
23838;SDS011;12100;44.384;20.272;2022-08-21T01:25:08;51.75;;;36.17;;
23838;SDS011;12100;44.384;20.272;2022-08-21T01:27:35;56.15;;;37.05;;
23838;SDS011;12100;44.384;20.272;2022-08-21T01:30:04;53.35;;;38.03;;
23838;SDS011;12100;44.384;20.272;2022-08-21T01:32:36;59.67;;;38.17;;
23838;SDS011;12100;44.384;20.272;2022-08-21T01:35:03;67.32;;;41.30;;
23838;SDS011;12100;44.384;20.272;2022-08-21T01:37:29;61.70;;;39.47;;
23838;SDS011;12100;44.384;20.272;2022-08-21T01:39:55;64.00;;;40.30;;
23838;SDS011;12100;44.384;20.272;2022-08-21T01:42:21;55.15;;;38.53;;
23838;SDS011;12100;44.384;20.272;2022-08-21T01:44:46;65.70;;;41.22;;
23838;SDS011;12100;44.384;20.272;2022-08-21T01:47:13;57.85;;;40.17;;
23838;SDS011;12100;44.384;20.272;2022-08-21T01:49:40;70.95;;;42.85;;
23838;SDS011;12100;44.384;20.272;2022-08-21T01:52:07;69.57;;;42.08;;
23838;SDS011;12100;44.384;20.272;2022-08-21T01:54:33;70.82;;;42.17;;
23838;SDS011;12100;44.384;20.272;2022-08-21T01:56:59;71.45;;;43.25;;
23838;SDS011;12100;44.384;20.272;2022-08-21T01:59:26;77.93;;;44.42;;
23838;SDS011;12100;44.384;20.272;2022-08-21T02:01:52;77.93;;;45.28;;
23838;SDS011;12100;44.384;20.272;2022-08-21T02:04:21;76.82;;;44.80;;
23838;SDS011;12100;44.384;20.272;2022-08-21T02:06:48;79.15;;;44.58;;
23838;SDS011;12100;44.384;20.272;2022-08-21T02:09:14;81.28;;;45.97;;
23838;SDS011;12100;44.384;20.272;2022-08-21T02:11:40;84.07;;;45.88;;
23838;SDS011;12100;44.384;20.272;2022-08-21T02:14:10;76.30;;;43.90;;
23838;SDS011;12100;44.384;20.272;2022-08-21T02:16:38;76.97;;;45.67;;
23838;SDS011;12100;44.384;20.272;2022-08-21T02:19:04;76.13;;;43.67;;
23838;SDS011;12100;44.384;20.272;2022-08-21T02:21:30;62.45;;;38.78;;
23838;SDS011;12100;44.384;20.272;2022-08-21T02:23:56;64.75;;;39.58;;
23838;SDS011;12100;44.384;20.272;2022-08-21T02:26:22;61.55;;;38.72;;
23838;SDS011;12100;44.384;20.272;2022-08-21T02:28:48;58.03;;;38.25;;
23838;SDS011;12100;44.384;20.272;2022-08-21T02:31:14;69.63;;;41.42;;
23838;SDS011;12100;44.384;20.272;2022-08-21T02:33:40;58.60;;;39.65;;
23838;SDS011;12100;44.384;20.272;2022-08-21T02:36:06;61.20;;;40.35;;
23838;SDS011;12100;44.384;20.272;2022-08-21T02:38:33;63.55;;;40.78;;
23838;SDS011;12100;44.384;20.272;2022-08-21T02:41:03;65.88;;;40.03;;
23838;SDS011;12100;44.384;20.272;2022-08-21T02:43:35;64.17;;;40.77;;
23838;SDS011;12100;44.384;20.272;2022-08-21T02:46:02;62.15;;;40.10;;
23838;SDS011;12100;44.384;20.272;2022-08-21T02:48:30;66.97;;;40.35;;
23838;SDS011;12100;44.384;20.272;2022-08-21T02:50:59;70.07;;;42.47;;
23838;SDS011;12100;44.384;20.272;2022-08-21T02:53:26;68.22;;;44.13;;
23838;SDS011;12100;44.384;20.272;2022-08-21T02:55:54;63.08;;;40.72;;
23838;SDS011;12100;44.384;20.272;2022-08-21T02:58:22;64.07;;;39.97;;
23838;SDS011;12100;44.384;20.272;2022-08-21T03:00:51;62.65;;;41.72;;
23838;SDS011;12100;44.384;20.272;2022-08-21T03:03:17;64.65;;;40.13;;
23838;SDS011;12100;44.384;20.272;2022-08-21T03:05:43;69.15;;;41.03;;
23838;SDS011;12100;44.384;20.272;2022-08-21T03:08:10;61.30;;;39.10;;
23838;SDS011;12100;44.384;20.272;2022-08-21T03:10:39;70.65;;;41.40;;
23838;SDS011;12100;44.384;20.272;2022-08-21T03:13:07;64.60;;;40.70;;
23838;SDS011;12100;44.384;20.272;2022-08-21T03:15:33;69.93;;;41.03;;
23838;SDS011;12100;44.384;20.272;2022-08-21T03:17:59;68.93;;;41.08;;
23838;SDS011;12100;44.384;20.272;2022-08-21T03:20:28;71.50;;;42.53;;
23838;SDS011;12100;44.384;20.272;2022-08-21T03:22:55;76.07;;;42.72;;
23838;SDS011;12100;44.384;20.272;2022-08-21T03:25:21;67.28;;;40.70;;
23838;SDS011;12100;44.384;20.272;2022-08-21T03:27:49;66.72;;;44.30;;
23838;SDS011;12100;44.384;20.272;2022-08-21T03:30:15;60.60;;;43.45;;
23838;SDS011;12100;44.384;20.272;2022-08-21T03:32:44;66.35;;;43.05;;
23838;SDS011;12100;44.384;20.272;2022-08-21T03:35:11;61.58;;;45.50;;
23838;SDS011;12100;44.384;20.272;2022-08-21T03:37:37;61.50;;;41.78;;
23838;SDS011;12100;44.384;20.272;2022-08-21T03:40:05;53.95;;;40.25;;
23838;SDS011;12100;44.384;20.272;2022-08-21T03:42:32;58.35;;;41.75;;
23838;SDS011;12100;44.384;20.272;2022-08-21T03:44:58;53.58;;;40.97;;
23838;SDS011;12100;44.384;20.272;2022-08-21T03:47:24;54.05;;;41.45;;
23838;SDS011;12100;44.384;20.272;2022-08-21T03:49:50;58.40;;;43.58;;
23838;SDS011;12100;44.384;20.272;2022-08-21T03:52:16;56.63;;;39.60;;
23838;SDS011;12100;44.384;20.272;2022-08-21T03:54:43;47.13;;;36.70;;
23838;SDS011;12100;44.384;20.272;2022-08-21T03:57:10;48.38;;;36.67;;
23838;SDS011;12100;44.384;20.272;2022-08-21T03:59:36;50.97;;;38.63;;
23838;SDS011;12100;44.384;20.272;2022-08-21T04:02:04;47.72;;;38.00;;
23838;SDS011;12100;44.384;20.272;2022-08-21T04:04:31;41.22;;;35.20;;
23838;SDS011;12100;44.384;20.272;2022-08-21T04:06:58;52.47;;;38.35;;
23838;SDS011;12100;44.384;20.272;2022-08-21T04:09:24;46.30;;;34.88;;
23838;SDS011;12100;44.384;20.272;2022-08-21T04:11:50;54.42;;;37.22;;
23838;SDS011;12100;44.384;20.272;2022-08-21T04:14:16;48.33;;;36.03;;
23838;SDS011;12100;44.384;20.272;2022-08-21T04:16:43;44.33;;;36.70;;
23838;SDS011;12100;44.384;20.272;2022-08-21T04:19:10;47.50;;;38.60;;
23838;SDS011;12100;44.384;20.272;2022-08-21T04:21:37;45.80;;;35.63;;
23838;SDS011;12100;44.384;20.272;2022-08-21T04:24:05;42.95;;;36.20;;
23838;SDS011;12100;44.384;20.272;2022-08-21T04:26:32;40.17;;;33.97;;
23838;SDS011;12100;44.384;20.272;2022-08-21T04:29:02;45.70;;;35.67;;
23838;SDS011;12100;44.384;20.272;2022-08-21T04:31:31;44.88;;;34.00;;
23838;SDS011;12100;44.384;20.272;2022-08-21T04:33:58;45.00;;;36.33;;
23838;SDS011;12100;44.384;20.272;2022-08-21T04:36:24;45.22;;;35.33;;
23838;SDS011;12100;44.384;20.272;2022-08-21T04:38:50;50.03;;;36.97;;
23838;SDS011;12100;44.384;20.272;2022-08-21T04:41:16;49.70;;;37.92;;
23838;SDS011;12100;44.384;20.272;2022-08-21T04:43:42;45.17;;;37.20;;
23838;SDS011;12100;44.384;20.272;2022-08-21T04:46:07;39.80;;;33.20;;
23838;SDS011;12100;44.384;20.272;2022-08-21T04:48:33;39.28;;;33.22;;
23838;SDS011;12100;44.384;20.272;2022-08-21T04:53:47;36.25;;;30.13;;
23838;SDS011;12100;44.384;20.272;2022-08-21T04:56:30;33.63;;;28.45;;
23838;SDS011;12100;44.384;20.272;2022-08-21T04:59:15;36.55;;;29.55;;
23838;SDS011;12100;44.384;20.272;2022-08-21T05:01:46;31.55;;;28.15;;
23838;SDS011;12100;44.384;20.272;2022-08-21T05:04:12;31.58;;;26.52;;
23838;SDS011;12100;44.384;20.272;2022-08-21T05:06:42;33.00;;;25.85;;
23838;SDS011;12100;44.384;20.272;2022-08-21T05:09:12;29.70;;;26.70;;
23838;SDS011;12100;44.384;20.272;2022-08-21T05:11:41;28.05;;;25.05;;
23838;SDS011;12100;44.384;20.272;2022-08-21T05:14:07;28.60;;;25.42;;
23838;SDS011;12100;44.384;20.272;2022-08-21T05:16:34;27.25;;;23.88;;
23838;SDS011;12100;44.384;20.272;2022-08-21T05:19:00;28.75;;;23.92;;
23838;SDS011;12100;44.384;20.272;2022-08-21T05:21:26;28.27;;;25.38;;
23838;SDS011;12100;44.384;20.272;2022-08-21T05:23:52;28.75;;;25.65;;
23838;SDS011;12100;44.384;20.272;2022-08-21T05:26:17;27.85;;;23.80;;
23838;SDS011;12100;44.384;20.272;2022-08-21T05:28:43;25.70;;;22.67;;
23838;SDS011;12100;44.384;20.272;2022-08-21T05:31:10;27.13;;;23.95;;
23838;SDS011;12100;44.384;20.272;2022-08-21T05:33:35;26.95;;;24.05;;
23838;SDS011;12100;44.384;20.272;2022-08-21T05:36:01;26.65;;;23.85;;
23838;SDS011;12100;44.384;20.272;2022-08-21T05:38:27;27.80;;;25.00;;
23838;SDS011;12100;44.384;20.272;2022-08-21T05:40:53;29.58;;;24.80;;
23838;SDS011;12100;44.384;20.272;2022-08-21T05:43:20;25.92;;;23.23;;
23838;SDS011;12100;44.384;20.272;2022-08-21T05:45:46;29.67;;;25.58;;
23838;SDS011;12100;44.384;20.272;2022-08-21T05:48:21;27.67;;;24.77;;
23838;SDS011;12100;44.384;20.272;2022-08-21T05:50:49;27.75;;;24.05;;
23838;SDS011;12100;44.384;20.272;2022-08-21T05:53:17;25.90;;;23.17;;
23838;SDS011;12100;44.384;20.272;2022-08-21T05:55:43;24.90;;;22.33;;
23838;SDS011;12100;44.384;20.272;2022-08-21T05:58:10;22.83;;;20.52;;
23838;SDS011;12100;44.384;20.272;2022-08-21T06:00:36;21.90;;;19.15;;
23838;SDS011;12100;44.384;20.272;2022-08-21T06:03:02;18.95;;;17.20;;
23838;SDS011;12100;44.384;20.272;2022-08-21T06:05:28;20.00;;;18.05;;
23838;SDS011;12100;44.384;20.272;2022-08-21T06:07:54;19.52;;;16.75;;
23838;SDS011;12100;44.384;20.272;2022-08-21T06:10:20;17.08;;;15.38;;
23838;SDS011;12100;44.384;20.272;2022-08-21T06:12:45;17.00;;;15.35;;
23838;SDS011;12100;44.384;20.272;2022-08-21T06:15:11;19.23;;;17.27;;
23838;SDS011;12100;44.384;20.272;2022-08-21T06:17:37;16.42;;;14.77;;
23838;SDS011;12100;44.384;20.272;2022-08-21T06:20:03;16.67;;;14.20;;
23838;SDS011;12100;44.384;20.272;2022-08-21T06:22:29;16.88;;;13.60;;
23838;SDS011;12100;44.384;20.272;2022-08-21T06:24:56;16.15;;;14.45;;
23838;SDS011;12100;44.384;20.272;2022-08-21T06:27:22;13.50;;;12.10;;
23838;SDS011;12100;44.384;20.272;2022-08-21T06:29:48;13.82;;;12.30;;
23838;SDS011;12100;44.384;20.272;2022-08-21T06:32:14;15.52;;;13.93;;
23838;SDS011;12100;44.384;20.272;2022-08-21T06:34:40;14.23;;;12.82;;
23838;SDS011;12100;44.384;20.272;2022-08-21T06:37:06;16.23;;;14.10;;
23838;SDS011;12100;44.384;20.272;2022-08-21T06:39:33;18.45;;;15.52;;
23838;SDS011;12100;44.384;20.272;2022-08-21T06:41:58;19.60;;;16.92;;
23838;SDS011;12100;44.384;20.272;2022-08-21T06:44:25;18.70;;;16.23;;
23838;SDS011;12100;44.384;20.272;2022-08-21T06:46:51;17.55;;;15.63;;
23838;SDS011;12100;44.384;20.272;2022-08-21T06:49:16;19.90;;;16.73;;
23838;SDS011;12100;44.384;20.272;2022-08-21T06:51:42;19.80;;;16.40;;
23838;SDS011;12100;44.384;20.272;2022-08-21T06:54:08;21.13;;;17.33;;
23838;SDS011;12100;44.384;20.272;2022-08-21T06:56:34;29.30;;;19.50;;
23838;SDS011;12100;44.384;20.272;2022-08-21T06:59:02;24.33;;;20.02;;
23838;SDS011;12100;44.384;20.272;2022-08-21T07:01:29;23.20;;;18.83;;
23838;SDS011;12100;44.384;20.272;2022-08-21T07:03:55;22.48;;;19.17;;
23838;SDS011;12100;44.384;20.272;2022-08-21T07:06:20;26.75;;;22.63;;
23838;SDS011;12100;44.384;20.272;2022-08-21T07:08:46;28.30;;;22.95;;
23838;SDS011;12100;44.384;20.272;2022-08-21T07:11:13;28.80;;;22.02;;
23838;SDS011;12100;44.384;20.272;2022-08-21T07:13:43;31.77;;;24.23;;
23838;SDS011;12100;44.384;20.272;2022-08-21T07:16:09;30.83;;;22.83;;
23838;SDS011;12100;44.384;20.272;2022-08-21T07:18:35;25.17;;;20.50;;
23838;SDS011;12100;44.384;20.272;2022-08-21T07:21:02;22.80;;;17.48;;
23838;SDS011;12100;44.384;20.272;2022-08-21T07:23:34;19.65;;;16.38;;
23838;SDS011;12100;44.384;20.272;2022-08-21T07:26:09;14.27;;;12.07;;
23838;SDS011;12100;44.384;20.272;2022-08-21T07:28:35;13.68;;;11.82;;
23838;SDS011;12100;44.384;20.272;2022-08-21T07:31:01;10.63;;;9.57;;
23838;SDS011;12100;44.384;20.272;2022-08-21T07:33:29;14.02;;;9.55;;
23838;SDS011;12100;44.384;20.272;2022-08-21T07:35:56;12.38;;;10.27;;
23838;SDS011;12100;44.384;20.272;2022-08-21T07:38:23;10.88;;;9.77;;
23838;SDS011;12100;44.384;20.272;2022-08-21T07:40:50;11.18;;;9.38;;
23838;SDS011;12100;44.384;20.272;2022-08-21T07:43:18;11.75;;;9.75;;
23838;SDS011;12100;44.384;20.272;2022-08-21T07:45:44;12.43;;;11.13;;
23838;SDS011;12100;44.384;20.272;2022-08-21T07:48:11;9.68;;;8.35;;
23838;SDS011;12100;44.384;20.272;2022-08-21T07:50:37;9.63;;;8.73;;
23838;SDS011;12100;44.384;20.272;2022-08-21T07:53:04;9.20;;;7.78;;
23838;SDS011;12100;44.384;20.272;2022-08-21T07:55:30;8.02;;;7.25;;
23838;SDS011;12100;44.384;20.272;2022-08-21T07:57:56;6.97;;;6.28;;
23838;SDS011;12100;44.384;20.272;2022-08-21T08:00:22;8.05;;;6.57;;
23838;SDS011;12100;44.384;20.272;2022-08-21T08:02:50;7.70;;;6.57;;
23838;SDS011;12100;44.384;20.272;2022-08-21T08:05:19;8.07;;;7.18;;
23838;SDS011;12100;44.384;20.272;2022-08-21T08:07:47;8.82;;;7.93;;
23838;SDS011;12100;44.384;20.272;2022-08-21T08:10:13;8.60;;;7.80;;
23838;SDS011;12100;44.384;20.272;2022-08-21T08:12:40;8.30;;;7.50;;
23838;SDS011;12100;44.384;20.272;2022-08-21T08:15:07;11.02;;;8.05;;
23838;SDS011;12100;44.384;20.272;2022-08-21T08:17:36;8.80;;;7.53;;
23838;SDS011;12100;44.384;20.272;2022-08-21T08:20:04;8.45;;;7.55;;
23838;SDS011;12100;44.384;20.272;2022-08-21T08:22:33;9.18;;;8.10;;
23838;SDS011;12100;44.384;20.272;2022-08-21T08:25:00;8.52;;;7.68;;
23838;SDS011;12100;44.384;20.272;2022-08-21T08:27:26;8.82;;;7.97;;
23838;SDS011;12100;44.384;20.272;2022-08-21T08:29:52;9.95;;;8.48;;
23838;SDS011;12100;44.384;20.272;2022-08-21T08:32:18;10.32;;;8.75;;
23838;SDS011;12100;44.384;20.272;2022-08-21T08:34:45;10.38;;;8.88;;
23838;SDS011;12100;44.384;20.272;2022-08-21T08:37:12;8.90;;;8.10;;
23838;SDS011;12100;44.384;20.272;2022-08-21T08:39:38;8.40;;;7.63;;
23838;SDS011;12100;44.384;20.272;2022-08-21T08:42:14;9.40;;;8.40;;
23838;SDS011;12100;44.384;20.272;2022-08-21T08:44:45;8.85;;;8.02;;
23838;SDS011;12100;44.384;20.272;2022-08-21T08:47:13;9.10;;;8.00;;
23838;SDS011;12100;44.384;20.272;2022-08-21T08:52:29;12.02;;;9.30;;
23838;SDS011;12100;44.384;20.272;2022-08-21T08:55:08;12.13;;;10.75;;
23838;SDS011;12100;44.384;20.272;2022-08-21T08:57:38;11.98;;;10.73;;
23838;SDS011;12100;44.384;20.272;2022-08-21T09:00:09;12.95;;;11.00;;
23838;SDS011;12100;44.384;20.272;2022-08-21T09:02:40;12.93;;;11.65;;
23838;SDS011;12100;44.384;20.272;2022-08-21T09:05:07;14.32;;;12.82;;
23838;SDS011;12100;44.384;20.272;2022-08-21T09:07:50;13.52;;;12.18;;
23838;SDS011;12100;44.384;20.272;2022-08-21T09:10:34;45.10;;;39.35;;
23838;SDS011;12100;44.384;20.272;2022-08-21T09:15:46;14.95;;;13.48;;
23838;SDS011;12100;44.384;20.272;2022-08-21T09:29:35;13.30;;;11.07;;
23838;SDS011;12100;44.384;20.272;2022-08-21T09:32:04;12.52;;;10.60;;
23838;SDS011;12100;44.384;20.272;2022-08-21T09:34:54;13.07;;;11.93;;
23838;SDS011;12100;44.384;20.272;2022-08-21T09:37:34;11.95;;;10.80;;
23838;SDS011;12100;44.384;20.272;2022-08-21T09:40:29;11.48;;;10.27;;
23838;SDS011;12100;44.384;20.272;2022-08-21T09:43:06;12.40;;;10.50;;
23838;SDS011;12100;44.384;20.272;2022-08-21T09:45:39;13.15;;;11.82;;
23838;SDS011;12100;44.384;20.272;2022-08-21T09:50:50;12.48;;;11.18;;
23838;SDS011;12100;44.384;20.272;2022-08-21T09:55:56;11.65;;;10.57;;
23838;SDS011;12100;44.384;20.272;2022-08-21T09:58:46;13.07;;;9.30;;
23838;SDS011;12100;44.384;20.272;2022-08-21T10:01:17;11.68;;;10.57;;
23838;SDS011;12100;44.384;20.272;2022-08-21T10:03:46;35.80;;;28.27;;
23838;SDS011;12100;44.384;20.272;2022-08-21T10:06:23;12.98;;;11.27;;
23838;SDS011;12100;44.384;20.272;2022-08-21T10:09:02;11.63;;;10.38;;
23838;SDS011;12100;44.384;20.272;2022-08-21T10:11:40;15.35;;;13.88;;
23838;SDS011;12100;44.384;20.272;2022-08-21T10:14:17;13.88;;;10.88;;
23838;SDS011;12100;44.384;20.272;2022-08-21T10:17:03;10.02;;;9.02;;
23838;SDS011;12100;44.384;20.272;2022-08-21T10:28:07;11.15;;;10.00;;
23838;SDS011;12100;44.384;20.272;2022-08-21T10:34:15;11.02;;;10.02;;
23838;SDS011;12100;44.384;20.272;2022-08-21T10:40:02;13.52;;;12.32;;
23838;SDS011;12100;44.384;20.272;2022-08-21T10:42:48;14.20;;;12.85;;
23838;SDS011;12100;44.384;20.272;2022-08-21T10:48:21;13.38;;;12.07;;
23838;SDS011;12100;44.384;20.272;2022-08-21T10:51:31;14.10;;;12.60;;
23838;SDS011;12100;44.384;20.272;2022-08-21T10:54:05;13.48;;;12.15;;
23838;SDS011;12100;44.384;20.272;2022-08-21T10:56:42;13.43;;;12.23;;
23838;SDS011;12100;44.384;20.272;2022-08-21T11:02:00;13.75;;;12.48;;
23838;SDS011;12100;44.384;20.272;2022-08-21T11:07:37;11.80;;;10.68;;
23838;SDS011;12100;44.384;20.272;2022-08-21T11:10:33;12.30;;;11.10;;
23838;SDS011;12100;44.384;20.272;2022-08-21T11:13:27;16.15;;;13.75;;
23838;SDS011;12100;44.384;20.272;2022-08-21T11:18:51;18.80;;;17.00;;
23838;SDS011;12100;44.384;20.272;2022-08-21T11:26:58;15.60;;;14.07;;
23838;SDS011;12100;44.384;20.272;2022-08-21T11:29:57;16.02;;;14.13;;
23838;SDS011;12100;44.384;20.272;2022-08-21T11:32:36;15.68;;;14.18;;
23838;SDS011;12100;44.384;20.272;2022-08-21T11:41:05;16.95;;;13.68;;
23838;SDS011;12100;44.384;20.272;2022-08-21T11:43:48;15.13;;;13.45;;
23838;SDS011;12100;44.384;20.272;2022-08-21T11:51:48;14.27;;;12.95;;
23838;SDS011;12100;44.384;20.272;2022-08-21T11:57:04;16.90;;;13.00;;
23838;SDS011;12100;44.384;20.272;2022-08-21T12:00:11;15.02;;;13.52;;
23838;SDS011;12100;44.384;20.272;2022-08-21T12:02:50;15.45;;;13.95;;
23838;SDS011;12100;44.384;20.272;2022-08-21T12:05:29;14.85;;;13.18;;
23838;SDS011;12100;44.384;20.272;2022-08-21T12:08:00;15.90;;;14.48;;
23838;SDS011;12100;44.384;20.272;2022-08-21T12:10:38;15.23;;;13.73;;
23838;SDS011;12100;44.384;20.272;2022-08-21T12:13:26;12.55;;;11.35;;
23838;SDS011;12100;44.384;20.272;2022-08-21T12:16:05;13.82;;;12.43;;
23838;SDS011;12100;44.384;20.272;2022-08-21T12:18:35;14.88;;;13.13;;
23838;SDS011;12100;44.384;20.272;2022-08-21T12:21:05;15.20;;;13.63;;
23838;SDS011;12100;44.384;20.272;2022-08-21T12:29:15;15.50;;;14.00;;
23838;SDS011;12100;44.384;20.272;2022-08-21T12:31:49;14.57;;;13.13;;
23838;SDS011;12100;44.384;20.272;2022-08-21T12:34:22;14.98;;;13.48;;
23838;SDS011;12100;44.384;20.272;2022-08-21T12:36:57;14.95;;;13.48;;
23838;SDS011;12100;44.384;20.272;2022-08-21T12:39:30;12.98;;;11.68;;
23838;SDS011;12100;44.384;20.272;2022-08-21T12:45:06;4.03;;;1.75;;
23838;SDS011;12100;44.384;20.272;2022-08-21T12:47:54;3.42;;;1.75;;
23838;SDS011;12100;44.384;20.272;2022-08-21T12:50:45;5.55;;;2.08;;
23838;SDS011;12100;44.384;20.272;2022-08-21T12:53:15;2.13;;;1.80;;
23838;SDS011;12100;44.384;20.272;2022-08-21T12:56:04;2.78;;;1.55;;
23838;SDS011;12100;44.384;20.272;2022-08-21T12:58:34;1.20;;;1.10;;
23838;SDS011;12100;44.384;20.272;2022-08-21T13:03:31;1.27;;;1.17;;
23838;SDS011;12100;44.384;20.272;2022-08-21T13:06:03;1.65;;;1.05;;
23838;SDS011;12100;44.384;20.272;2022-08-21T13:08:30;1.98;;;1.25;;
23838;SDS011;12100;44.384;20.272;2022-08-21T13:11:04;4.63;;;1.35;;
23838;SDS011;12100;44.384;20.272;2022-08-21T13:13:31;3.53;;;1.15;;
23838;SDS011;12100;44.384;20.272;2022-08-21T13:15:59;2.22;;;0.98;;
23838;SDS011;12100;44.384;20.272;2022-08-21T13:18:31;1.92;;;1.30;;
23838;SDS011;12100;44.384;20.272;2022-08-21T13:21:10;2.15;;;1.00;;
23838;SDS011;12100;44.384;20.272;2022-08-21T13:23:39;1.60;;;1.35;;
23838;SDS011;12100;44.384;20.272;2022-08-21T13:26:12;1.50;;;1.40;;
23838;SDS011;12100;44.384;20.272;2022-08-21T13:28:39;1.52;;;1.05;;
23838;SDS011;12100;44.384;20.272;2022-08-21T13:31:06;5.07;;;3.25;;
23838;SDS011;12100;44.384;20.272;2022-08-21T13:33:35;1.58;;;1.48;;
23838;SDS011;12100;44.384;20.272;2022-08-21T13:38:34;4.63;;;1.90;;
23838;SDS011;12100;44.384;20.272;2022-08-21T13:41:06;1.83;;;1.73;;
23838;SDS011;12100;44.384;20.272;2022-08-21T13:43:43;2.25;;;1.70;;
23838;SDS011;12100;44.384;20.272;2022-08-21T13:46:11;3.03;;;2.72;;
23838;SDS011;12100;44.384;20.272;2022-08-21T13:48:39;3.10;;;2.28;;
23838;SDS011;12100;44.384;20.272;2022-08-21T13:51:07;3.13;;;2.80;;
23838;SDS011;12100;44.384;20.272;2022-08-21T13:53:43;4.07;;;3.30;;
23838;SDS011;12100;44.384;20.272;2022-08-21T13:58:53;5.88;;;4.85;;
23838;SDS011;12100;44.384;20.272;2022-08-21T14:03:52;9.23;;;7.90;;
23838;SDS011;12100;44.384;20.272;2022-08-21T14:06:25;9.27;;;8.32;;
23838;SDS011;12100;44.384;20.272;2022-08-21T14:09:08;9.63;;;8.73;;
23838;SDS011;12100;44.384;20.272;2022-08-21T14:11:55;9.60;;;8.70;;
23838;SDS011;12100;44.384;20.272;2022-08-21T14:14:23;10.18;;;9.20;;
23838;SDS011;12100;44.384;20.272;2022-08-21T14:16:54;8.85;;;8.05;;
23838;SDS011;12100;44.384;20.272;2022-08-21T14:19:24;8.68;;;7.03;;
23838;SDS011;12100;44.384;20.272;2022-08-21T14:24:48;9.05;;;8.20;;
23838;SDS011;12100;44.384;20.272;2022-08-21T14:27:16;9.63;;;8.77;;
23838;SDS011;12100;44.384;20.272;2022-08-21T14:29:44;9.07;;;7.78;;
23838;SDS011;12100;44.384;20.272;2022-08-21T14:34:41;8.88;;;8.02;;
23838;SDS011;12100;44.384;20.272;2022-08-21T14:37:07;8.90;;;8.00;;
23838;SDS011;12100;44.384;20.272;2022-08-21T14:39:32;9.75;;;8.75;;
23838;SDS011;12100;44.384;20.272;2022-08-21T14:41:58;9.20;;;8.40;;
23838;SDS011;12100;44.384;20.272;2022-08-21T14:44:25;9.40;;;8.50;;
23838;SDS011;12100;44.384;20.272;2022-08-21T14:46:51;10.50;;;9.52;;
23838;SDS011;12100;44.384;20.272;2022-08-21T14:49:18;10.75;;;9.73;;
23838;SDS011;12100;44.384;20.272;2022-08-21T14:51:44;10.77;;;9.77;;
23838;SDS011;12100;44.384;20.272;2022-08-21T14:54:10;11.02;;;9.77;;
23838;SDS011;12100;44.384;20.272;2022-08-21T14:56:36;12.00;;;9.38;;
23838;SDS011;12100;44.384;20.272;2022-08-21T14:59:03;11.15;;;9.77;;
23838;SDS011;12100;44.384;20.272;2022-08-21T15:01:31;11.70;;;10.60;;
23838;SDS011;12100;44.384;20.272;2022-08-21T15:04:02;13.27;;;11.98;;
23838;SDS011;12100;44.384;20.272;2022-08-21T15:06:28;12.30;;;11.10;;
23838;SDS011;12100;44.384;20.272;2022-08-21T15:08:53;14.63;;;12.85;;
23838;SDS011;12100;44.384;20.272;2022-08-21T15:11:20;15.23;;;13.43;;
23838;SDS011;12100;44.384;20.272;2022-08-21T15:13:48;20.65;;;13.95;;
23838;SDS011;12100;44.384;20.272;2022-08-21T15:16:20;15.65;;;13.50;;
23838;SDS011;12100;44.384;20.272;2022-08-21T15:18:46;17.77;;;14.88;;
23838;SDS011;12100;44.384;20.272;2022-08-21T15:21:13;17.83;;;15.68;;
23838;SDS011;12100;44.384;20.272;2022-08-21T15:23:39;17.42;;;15.15;;
23838;SDS011;12100;44.384;20.272;2022-08-21T15:26:05;17.35;;;15.55;;
23838;SDS011;12100;44.384;20.272;2022-08-21T15:28:31;18.58;;;15.90;;
23838;SDS011;12100;44.384;20.272;2022-08-21T15:30:59;17.70;;;15.90;;
23838;SDS011;12100;44.384;20.272;2022-08-21T15:33:25;22.00;;;17.88;;
23838;SDS011;12100;44.384;20.272;2022-08-21T15:35:51;18.35;;;16.45;;
23838;SDS011;12100;44.384;20.272;2022-08-21T15:38:17;19.13;;;17.13;;
23838;SDS011;12100;44.384;20.272;2022-08-21T15:40:43;18.90;;;16.90;;
23838;SDS011;12100;44.384;20.272;2022-08-21T15:43:14;20.00;;;16.05;;
23838;SDS011;12100;44.384;20.272;2022-08-21T15:45:51;20.40;;;16.88;;
23838;SDS011;12100;44.384;20.272;2022-08-21T15:48:17;19.90;;;17.42;;
23838;SDS011;12100;44.384;20.272;2022-08-21T15:50:43;18.33;;;15.48;;
23838;SDS011;12100;44.384;20.272;2022-08-21T15:53:08;17.95;;;16.05;;
23838;SDS011;12100;44.384;20.272;2022-08-21T15:55:34;18.67;;;16.17;;
23838;SDS011;12100;44.384;20.272;2022-08-21T15:58:00;19.35;;;17.25;;
23838;SDS011;12100;44.384;20.272;2022-08-21T16:00:28;21.25;;;17.98;;
23838;SDS011;12100;44.384;20.272;2022-08-21T16:02:58;23.15;;;17.55;;